KMOB

Mobile Regional Airport

Mobile, Alabama, USA
METAR KMOB 190256Z 00000KT 10SM CLR M02/M08 A3043 RMK AO2 SLP305 T10221078 53003
Observed Flight Rules
Jan-19 @ 02:56 UTC (49 minutes ago) Visual Flight Rules
Wind Visibility Clouds
Calm 10 miles
  • Clear skies
Temperatures Readings
Current -2°C / 28°F
Dewpoint -8°C / 18°F
Humidity 64%
Altimeter 30.43" Hg
Pressure 1030.5 hPa
Elevation 63
METAR KMOB 190256Z 00000KT 10SM CLR M02/M08 A3043 RMK AO2 SLP305 T10221078 53003
Observed Flight Rules
Jan-19 @ 02:56 UTC
(49 minutes ago)
VFR
Wind Visibility
Calm 10 miles
Clouds
  • Clear skies
Temperature Dewpoint
-2°C / 28°F -8°C / 18°F
Humidity Altimeter Pressure
64% 30.43" Hg 1030.5 hPa